createdAt,value
2022-11-12T00:01:04.327Z,64.16
2022-11-12T00:03:31.901Z,64.10
2022-11-12T00:05:58.419Z,64.03
2022-11-12T00:08:25.654Z,62.88
2022-11-12T00:10:52.707Z,62.75
2022-11-12T00:13:23.303Z,63.92
2022-11-12T00:15:50.036Z,63.04
2022-11-12T00:18:17.144Z,62.33
2022-11-12T00:20:43.761Z,63.10
2022-11-12T00:23:12.683Z,64.85
2022-11-12T00:25:39.893Z,64.79
2022-11-12T00:28:07.141Z,66.75
2022-11-12T00:30:33.870Z,66.67
2022-11-12T00:33:02.696Z,64.02
2022-11-12T00:35:29.462Z,62.04
2022-11-12T00:37:56.391Z,61.84
2022-11-12T00:40:23.165Z,63.73
2022-11-12T00:42:49.712Z,66.45
2022-11-12T00:45:16.539Z,66.33
2022-11-12T00:47:43.170Z,65.51
2022-11-12T00:50:10.482Z,64.87
2022-11-12T00:52:37.200Z,64.45
2022-11-12T00:55:05.886Z,66.33
2022-11-12T00:57:36.977Z,66.51
2022-11-12T01:00:03.442Z,67.21
2022-11-12T01:02:30.193Z,65.56
2022-11-12T01:04:57.875Z,65.20
2022-11-12T01:23:31.456Z,68.20
2022-11-12T01:25:58.604Z,68.95
2022-11-12T01:28:25.579Z,68.06
2022-11-12T01:30:53.332Z,68.78
2022-11-12T01:33:20.001Z,67.52
2022-11-12T01:35:46.915Z,67.67
2022-11-12T01:38:21.147Z,68.86
2022-11-12T01:40:48.163Z,71.49
2022-11-12T01:43:15.513Z,70.77
2022-11-12T01:45:42.708Z,67.41
2022-11-12T01:48:14.672Z,69.40
2022-11-12T01:50:41.384Z,68.46
2022-11-12T01:53:08.590Z,65.70
2022-11-12T01:55:35.327Z,64.03
2022-11-12T02:00:53.057Z,63.52
2022-11-12T02:03:20.871Z,65.46
2022-11-12T02:05:48.677Z,62.92
2022-11-12T02:08:15.356Z,61.26
2022-11-12T02:10:46.146Z,59.92
2022-11-12T02:13:17.969Z,59.69
2022-11-12T02:15:49.745Z,61.65
2022-11-12T02:18:18.973Z,63.07
2022-11-12T02:20:47.465Z,63.79
2022-11-12T02:23:18.236Z,67.10
2022-11-12T02:25:45.810Z,67.05
2022-11-12T02:28:17.238Z,66.27
2022-11-12T02:30:44.498Z,66.53
2022-11-12T02:33:14.427Z,66.04
2022-11-12T02:35:46.373Z,67.15
2022-11-12T02:38:14.234Z,65.52
2022-11-12T02:40:45.997Z,64.16
2022-11-12T02:43:13.762Z,63.17
2022-11-12T02:45:45.520Z,65.28
2022-11-12T02:51:16.275Z,63.87
2022-11-12T02:53:43.335Z,64.12
2022-11-12T02:56:10.401Z,63.12
2022-11-12T03:01:40.559Z,61.26
2022-11-12T03:04:09.252Z,63.14
2022-11-12T03:06:36.383Z,64.15
2022-11-12T03:09:04.883Z,64.55
2022-11-12T03:11:31.675Z,63.15
2022-11-12T03:13:58.987Z,60.89
2022-11-12T03:16:26.470Z,60.86
2022-11-12T03:18:53.461Z,60.04
2022-11-12T03:21:21.838Z,58.53
2022-11-12T03:23:51.819Z,58.07
2022-11-12T03:26:22.122Z,58.65
2022-11-12T03:28:49.252Z,58.60
2022-11-12T03:33:57.835Z,57.27
2022-11-12T03:36:25.794Z,56.71
2022-11-12T03:38:52.798Z,56.91
2022-11-12T03:41:20.412Z,57.16
2022-11-12T03:46:32.440Z,57.66
2022-11-12T03:48:59.987Z,57.52
2022-11-12T03:51:26.984Z,56.72
2022-11-12T03:54:01.281Z,57.80
2022-11-12T03:56:28.221Z,58.00
2022-11-12T03:58:55.629Z,59.31
2022-11-12T04:01:27.022Z,60.39
2022-11-12T04:03:54.373Z,61.52
2022-11-12T04:06:32.355Z,61.79
2022-11-12T04:08:59.824Z,60.84
2022-11-12T04:11:31.540Z,60.20
2022-11-12T04:14:19.830Z,58.58
2022-11-12T04:19:40.036Z,58.93
2022-11-12T04:22:07.878Z,57.69
2022-11-12T04:24:35.698Z,57.14
2022-11-12T04:27:05.735Z,57.44
2022-11-12T04:29:37.247Z,56.84
2022-11-12T04:32:07.761Z,56.50
2022-11-12T04:34:35.588Z,56.40
2022-11-12T04:37:04.260Z,57.16
2022-11-12T04:39:31.168Z,57.26
2022-11-12T04:41:58.886Z,56.94
2022-11-12T04:44:25.865Z,57.71
2022-11-12T04:46:52.860Z,58.44
2022-11-12T04:49:20.606Z,58.02
2022-11-12T04:51:48.998Z,56.88
2022-11-12T04:54:18.154Z,56.71
2022-11-12T04:56:44.895Z,56.82
2022-11-12T04:59:12.674Z,56.61
2022-11-12T05:01:39.480Z,56.33
2022-11-12T05:04:07.134Z,56.11
2022-11-12T05:06:34.094Z,55.50
2022-11-12T05:09:01.726Z,55.76
2022-11-12T05:11:28.412Z,55.84
2022-11-12T05:13:55.490Z,55.66
2022-11-12T05:16:22.935Z,55.64
2022-11-12T05:18:54.582Z,55.70
2022-11-12T05:21:21.477Z,55.80
2022-11-12T05:23:51.382Z,56.09
2022-11-12T05:26:18.799Z,57.87
2022-11-12T05:28:45.972Z,58.41
2022-11-12T05:31:13.660Z,60.26
2022-11-12T05:33:40.440Z,59.05
2022-11-12T05:36:07.088Z,57.78
2022-11-12T05:38:33.808Z,59.96
2022-11-12T05:41:00.767Z,59.49
2022-11-12T05:43:27.878Z,61.20
2022-11-12T05:45:55.109Z,59.48
2022-11-12T05:48:24.592Z,58.54
2022-11-12T05:51:11.983Z,57.37
2022-11-12T05:53:38.756Z,59.20
2022-11-12T05:56:09.682Z,58.71
2022-11-12T05:58:37.420Z,60.29
2022-11-12T06:01:04.988Z,58.88
2022-11-12T06:03:32.480Z,60.80
2022-11-12T06:06:00.238Z,58.95
2022-11-12T06:08:36.295Z,58.49
2022-11-12T06:11:04.125Z,58.02
2022-11-12T06:16:25.618Z,57.39
2022-11-12T06:18:55.849Z,57.81
2022-11-12T06:21:22.743Z,58.09
2022-11-12T06:23:49.734Z,58.61
2022-11-12T06:26:16.344Z,57.76
2022-11-12T06:28:44.554Z,57.65
2022-11-12T06:31:13.915Z,57.36
2022-11-12T06:33:42.852Z,57.20
2022-11-12T06:36:12.134Z,56.51
2022-11-12T06:47:57.261Z,57.03
2022-11-12T06:50:24.732Z,56.33
2022-11-12T06:52:54.725Z,55.46
2022-11-12T06:55:21.839Z,55.08
2022-11-12T07:00:38.903Z,55.20
2022-11-12T07:09:01.819Z,54.88
2022-11-12T07:11:29.478Z,54.42
2022-11-12T07:13:56.920Z,54.80
2022-11-12T07:25:59.666Z,54.61
2022-11-12T07:28:45.175Z,55.72
2022-11-12T07:31:15.035Z,54.98
2022-11-12T07:33:45.197Z,56.18
2022-11-12T07:36:14.935Z,56.32
2022-11-12T07:38:44.254Z,56.12
2022-11-12T07:41:11.492Z,55.53
2022-11-12T07:43:42.600Z,55.24
2022-11-12T07:46:11.905Z,55.97
2022-11-12T09:06:36.014Z,55.29
2022-11-12T09:09:03.929Z,55.73
2022-11-12T09:11:32.156Z,55.12
2022-11-12T09:14:19.607Z,54.62
2022-11-12T15:59:36.308Z,61.93
2022-11-12T16:02:08.818Z,59.87
2022-11-12T16:04:37.035Z,59.64
2022-11-12T16:07:05.196Z,60.31
2022-11-12T16:12:24.434Z,58.13
2022-11-12T16:14:53.634Z,58.58
2022-11-12T16:23:08.233Z,59.14
2022-11-12T16:25:36.336Z,58.30
2022-11-12T16:28:05.297Z,58.03
2022-11-12T16:30:33.037Z,58.32
2022-11-12T16:33:00.235Z,57.12
2022-11-12T16:38:09.936Z,59.00
2022-11-12T16:40:39.042Z,60.51
2022-11-12T16:43:06.842Z,58.64
2022-11-12T16:45:43.102Z,58.05
2022-11-12T16:48:23.049Z,57.87
2022-11-12T16:50:50.703Z,57.58
2022-11-12T16:53:17.678Z,57.26
2022-11-12T16:55:47.251Z,57.37
2022-11-12T16:58:14.922Z,56.87
2022-11-12T17:00:42.962Z,57.24
2022-11-12T17:03:12.597Z,57.33
2022-11-12T17:05:42.698Z,56.58
2022-11-12T17:08:14.478Z,57.53
2022-11-12T17:10:44.190Z,58.02
2022-11-12T17:16:10.852Z,59.79
2022-11-12T17:27:40.090Z,58.70
2022-11-12T17:30:14.220Z,58.96
2022-11-12T17:32:41.918Z,57.90
2022-11-12T17:35:08.847Z,59.62
2022-11-12T17:40:38.442Z,62.09
2022-11-12T17:43:10.215Z,61.06
2022-11-12T17:45:38.445Z,62.31
2022-11-12T17:48:06.392Z,61.28
2022-11-12T17:50:34.296Z,61.32
2022-11-12T17:53:06.376Z,60.67
2022-11-12T17:55:37.285Z,62.73
2022-11-12T17:58:08.121Z,61.83
2022-11-12T18:00:35.673Z,60.54
2022-11-12T18:03:03.284Z,60.13
2022-11-12T18:05:31.232Z,59.98
2022-11-12T18:07:59.305Z,60.45
2022-11-12T18:10:29.056Z,61.14
2022-11-12T18:12:59.749Z,62.36
2022-11-12T18:15:26.370Z,64.80
2022-11-12T18:17:53.289Z,66.66
2022-11-12T18:20:20.835Z,65.37
2022-11-12T18:22:48.941Z,66.06
2022-11-12T18:25:15.605Z,66.09
2022-11-12T18:27:49.592Z,65.09
2022-11-12T18:30:19.442Z,63.35
2022-11-12T18:32:49.542Z,63.73
2022-11-12T18:38:34.361Z,65.29
2022-11-12T18:41:02.149Z,65.37
2022-11-12T18:43:30.044Z,66.62
2022-11-12T18:45:59.271Z,64.70
2022-11-12T18:48:26.882Z,63.35
2022-11-12T18:50:56.956Z,64.10
2022-11-12T18:53:27.137Z,62.51
2022-11-12T18:55:54.679Z,61.79
2022-11-12T18:58:23.178Z,62.48
2022-11-12T19:00:50.777Z,65.51
2022-11-12T19:06:17.091Z,62.16
2022-11-12T19:08:44.084Z,60.37
2022-11-12T19:11:11.956Z,59.85
2022-11-12T19:13:39.724Z,58.68
2022-11-12T19:16:06.605Z,58.56
2022-11-12T19:18:33.392Z,58.05
2022-11-12T19:21:02.027Z,58.18
2022-11-12T19:23:42.388Z,60.44
2022-11-12T19:31:45.760Z,57.82
2022-11-12T19:34:13.641Z,57.65
2022-11-12T19:36:56.610Z,57.22
2022-11-12T19:40:01.047Z,57.02
2022-11-12T19:42:39.532Z,58.06
2022-11-12T19:45:07.704Z,60.56
2022-11-12T19:47:35.764Z,64.62
2022-11-12T19:50:03.504Z,63.49
2022-11-12T19:52:44.690Z,61.66
2022-11-12T19:55:16.861Z,59.82
2022-11-12T19:57:44.776Z,59.54
2022-11-12T20:00:15.894Z,59.16
2022-11-12T20:02:42.655Z,61.58
2022-11-12T20:05:13.320Z,60.88
2022-11-12T20:07:43.083Z,64.20
2022-11-12T20:10:10.226Z,64.83
2022-11-12T20:12:39.426Z,63.17
2022-11-12T20:15:11.323Z,65.73
2022-11-12T20:17:38.091Z,65.74
2022-11-12T20:20:06.860Z,66.29
2022-11-12T20:22:39.698Z,66.38
2022-11-12T20:25:08.288Z,63.89
2022-11-12T20:27:35.320Z,61.88
2022-11-12T20:30:13.671Z,61.96
2022-11-12T20:32:42.711Z,62.44
2022-11-12T20:35:19.308Z,61.56
2022-11-12T20:37:57.310Z,61.63
2022-11-12T20:40:25.738Z,60.90
2022-11-12T20:42:54.009Z,59.76
2022-11-12T20:45:20.650Z,60.54
2022-11-12T20:47:48.937Z,63.69
2022-11-12T20:50:17.047Z,62.84
2022-11-12T20:52:44.280Z,61.99
2022-11-12T20:55:12.958Z,61.15
2022-11-12T20:57:40.827Z,59.85
2022-11-12T21:00:13.261Z,59.89
2022-11-12T21:02:43.043Z,59.71
2022-11-12T21:05:12.099Z,58.70
2022-11-12T21:07:39.898Z,58.25
2022-11-12T21:10:07.655Z,58.83
2022-11-12T21:12:35.316Z,61.01
2022-11-12T21:15:02.815Z,62.19
2022-11-12T21:17:29.935Z,62.30
2022-11-12T21:19:56.868Z,61.43
2022-11-12T21:24:54.666Z,59.55
2022-11-12T21:27:21.524Z,59.78
2022-11-12T21:29:59.926Z,59.34
2022-11-12T21:32:26.679Z,58.78
2022-11-12T21:34:55.478Z,58.11
2022-11-12T21:37:22.686Z,58.03
2022-11-12T21:39:50.328Z,58.64
2022-11-12T21:42:19.292Z,58.41
2022-11-12T21:44:48.489Z,59.40
2022-11-12T21:50:10.342Z,58.40
2022-11-12T21:52:44.751Z,57.39
2022-11-12T21:55:14.839Z,57.78
2022-11-12T21:57:51.049Z,57.62
2022-11-12T22:00:40.966Z,57.79
2022-11-12T22:03:08.936Z,57.43
2022-11-12T22:05:35.814Z,57.55
2022-11-12T22:08:05.662Z,59.50
2022-11-12T22:10:33.198Z,60.42
2022-11-12T22:13:25.450Z,59.60
2022-11-12T22:15:48.339Z,61.50
2022-11-12T22:18:15.189Z,63.13
2022-11-12T22:20:42.028Z,61.89
2022-11-12T22:23:13.979Z,59.98
2022-11-12T22:25:41.649Z,59.61
2022-11-12T22:28:09.195Z,60.23
2022-11-12T22:30:39.841Z,58.44
2022-11-12T22:33:06.789Z,59.22
2022-11-12T22:35:33.305Z,60.62
2022-11-12T22:37:59.975Z,60.80
2022-11-12T22:40:26.802Z,60.68
2022-11-12T22:42:53.527Z,60.95
